Time;durP1;ratioP1;P1;durP2;ratioP2;P2;SDS_P1;SDS_P2;PMS_P1;PMS_P2;Temp;Humidity;BMP_temperature;BMP_pressure;BME280_temperature;BME280_humidity;BME280_pressure;Samples;Min_cycle;Max_cycle;Signal;HPM_P1;HPM_P2
2022/05/07 00:00:54;;;;;;;;;;;11.30;99.90;;;;;;5045477;28;19921;-69
2022/05/07 00:03:21;;;;;;;;;;;11.30;99.90;;;;;;5045448;28;19929;-69
2022/05/07 00:05:47;;;;;;;;;;;11.20;99.90;;;;;;5045017;28;19960;-69
2022/05/07 00:08:14;;;;;;;;;;;11.00;99.90;;;;;;5045309;28;19927;-68
2022/05/07 00:10:42;;;;;;;;;;;10.80;99.90;;;;;;5045135;28;20232;-69
2022/05/07 00:13:10;;;;;;;;;;;10.80;99.90;;;;;;5044854;28;19921;-68
2022/05/07 00:15:37;;;;;;;;;;;10.70;99.90;;;;;;5041435;28;19929;-69
2022/05/07 00:18:05;;;;;;;;;;;10.70;99.90;;;;;;5042504;28;20141;-69
2022/05/07 00:20:33;;;;;;;;;;;10.70;99.90;;;;;;5032238;28;19925;-69
2022/05/07 00:23:00;;;;;;;;;;;10.80;99.90;;;;;;5045457;28;19928;-69
2022/05/07 00:25:29;;;;;;;;;;;10.70;99.90;;;;;;5041492;28;19951;-68
2022/05/07 00:27:55;;;;;;;;;;;10.70;99.90;;;;;;5045205;28;20204;-69
2022/05/07 00:30:23;;;;;;;;;;;10.70;99.90;;;;;;5045382;28;19929;-68
2022/05/07 00:32:50;;;;;;;;;;;10.70;99.90;;;;;;5045376;28;19943;-68
2022/05/07 00:35:16;;;;;;;;;;;10.70;99.90;;;;;;5044639;28;19921;-68
2022/05/07 00:37:43;;;;;;;;;;;10.70;99.90;;;;;;5045210;28;19928;-69
2022/05/07 00:40:10;;;;;;;;;;;10.60;99.90;;;;;;5045564;28;19921;-69
2022/05/07 00:42:41;;;;;;;;;;;10.60;99.90;;;;;;5042430;28;19935;-68
2022/05/07 00:45:08;;;;;;;;;;;10.60;99.90;;;;;;5045146;28;20117;-69
2022/05/07 00:47:38;;;;;;;;;;;10.60;99.90;;;;;;5044569;28;19983;-68
2022/05/07 00:52:50;;;;;;;;;;;10.50;99.90;;;;;;5044638;28;19955;-68
2022/05/07 00:55:17;;;;;;;;;;;10.50;99.90;;;;;;5044271;28;19921;-69
2022/05/07 00:57:43;;;;;;;;;;;10.50;99.90;;;;;;5031667;28;20285;-68
2022/05/07 01:00:11;;;;;;;;;;;10.50;99.90;;;;;;5025097;28;20113;-69
2022/05/07 01:02:41;;;;;;;;;;;10.40;99.90;;;;;;5024993;28;19928;-69
2022/05/07 01:05:09;;;;;;;;;;;10.40;99.90;;;;;;5022372;28;19964;-69
2022/05/07 01:07:36;;;;;;;;;;;10.40;99.90;;;;;;5044578;28;19960;-68
2022/05/07 01:10:03;;;;;;;;;;;10.30;99.90;;;;;;5044617;28;19927;-68
2022/05/07 01:12:30;;;;;;;;;;;10.20;99.90;;;;;;5044272;28;19928;-69
2022/05/07 01:14:57;;;;;;;;;;;10.10;99.90;;;;;;5044515;28;20089;-69
2022/05/07 01:17:23;;;;;;;;;;;10.20;99.90;;;;;;5043892;28;19921;-68
2022/05/07 01:19:53;;;;;;;;;;;10.10;99.90;;;;;;5044635;28;19928;-68
2022/05/07 01:22:21;;;;;;;;;;;10.00;99.90;;;;;;5043984;28;20217;-68
2022/05/07 01:24:48;;;;;;;;;;;10.00;99.90;;;;;;5044350;28;19929;-69
2022/05/07 01:27:14;;;;;;;;;;;10.00;99.90;;;;;;5043221;28;19928;-70
2022/05/07 01:29:41;;;;;;;;;;;9.90;99.90;;;;;;5044416;28;19921;-68
2022/05/07 01:32:08;;;;;;;;;;;9.90;99.90;;;;;;5044097;28;19928;-68
2022/05/07 01:34:34;;;;;;;;;;;9.90;99.90;;;;;;5044021;28;19925;-68
2022/05/07 01:37:01;;;;;;;;;;;9.80;99.90;;;;;;5043348;28;19921;-69
2022/05/07 01:39:29;;;;;;;;;;;9.80;99.90;;;;;;5024396;28;19928;-69
2022/05/07 01:41:55;;;;;;;;;;;9.80;99.90;;;;;;5024253;28;19921;-68
2022/05/07 01:44:22;;;;;;;;;;;9.80;99.90;;;;;;5021036;28;19921;-68
2022/05/07 01:49:32;;;;;;;;;;;9.80;99.90;;;;;;5043920;28;19959;-68
2022/05/07 01:52:00;;;;;;;;;;;9.80;99.90;;;;;;5041185;28;19929;-69
2022/05/07 01:54:27;;;;;;;;;;;9.70;99.90;;;;;;5043632;28;19928;-68
2022/05/07 01:56:55;;;;;;;;;;;9.70;99.90;;;;;;5043075;28;19928;-69
2022/05/07 01:59:21;;;;;;;;;;;9.70;99.90;;;;;;5043872;28;19928;-69
2022/05/07 02:01:48;;;;;;;;;;;9.60;99.90;;;;;;5042631;28;19921;-68
2022/05/07 02:04:14;;;;;;;;;;;9.60;99.90;;;;;;5043474;28;19921;-69
2022/05/07 02:06:41;;;;;;;;;;;9.50;99.90;;;;;;5042789;28;19921;-68
2022/05/07 02:09:09;;;;;;;;;;;9.50;99.90;;;;;;5040947;28;19936;-68
2022/05/07 02:11:35;;;;;;;;;;;9.40;99.90;;;;;;5043473;28;19980;-69
2022/05/07 02:14:03;;;;;;;;;;;9.40;99.90;;;;;;5043765;28;19921;-69
2022/05/07 02:16:30;;;;;;;;;;;9.40;99.90;;;;;;5042821;28;19921;-68
2022/05/07 02:18:57;;;;;;;;;;;9.40;99.90;;;;;;5043595;28;19984;-69
2022/05/07 02:21:24;;;;;;;;;;;9.40;99.90;;;;;;5043557;28;19928;-68
2022/05/07 02:23:52;;;;;;;;;;;9.30;99.90;;;;;;5042388;28;19921;-68
2022/05/07 02:26:19;;;;;;;;;;;9.30;99.90;;;;;;5043013;28;19921;-68
2022/05/07 02:28:45;;;;;;;;;;;9.20;99.90;;;;;;5043630;28;19921;-68
2022/05/07 02:31:13;;;;;;;;;;;9.20;99.90;;;;;;5043143;28;19960;-70
2022/05/07 02:33:40;;;;;;;;;;;9.10;99.90;;;;;;5043265;28;20320;-68
2022/05/07 02:36:06;;;;;;;;;;;9.00;99.90;;;;;;5042412;28;20205;-68
2022/05/07 02:38:33;;;;;;;;;;;9.00;99.90;;;;;;5043416;28;19921;-68
2022/05/07 02:43:44;;;;;;;;;;;8.90;99.90;;;;;;5023346;28;20112;-69
2022/05/07 02:46:10;;;;;;;;;;;8.80;99.90;;;;;;5023423;28;20033;-68
2022/05/07 02:48:38;;;;;;;;;;;8.80;99.90;;;;;;5043174;28;19993;-68
2022/05/07 02:51:05;;;;;;;;;;;8.70;99.90;;;;;;5043128;28;19936;-68
2022/05/07 02:53:31;;;;;;;;;;;8.70;99.90;;;;;;5041528;28;20143;-68
2022/05/07 02:55:58;;;;;;;;;;;8.70;99.90;;;;;;5042493;28;19921;-69
2022/05/07 02:58:25;;;;;;;;;;;8.70;99.90;;;;;;5043291;28;19953;-68
2022/05/07 03:00:51;;;;;;;;;;;8.60;99.90;;;;;;5043090;28;19921;-68
2022/05/07 03:03:18;;;;;;;;;;;8.60;99.90;;;;;;5042846;28;20209;-68
2022/05/07 03:05:46;;;;;;;;;;;8.60;99.90;;;;;;5042648;28;20303;-68
2022/05/07 03:08:12;;;;;;;;;;;8.60;99.90;;;;;;5042973;28;20152;-68
2022/05/07 03:10:39;;;;;;;;;;;8.50;99.90;;;;;;5043143;28;19921;-68
2022/05/07 03:13:06;;;;;;;;;;;8.50;99.90;;;;;;5043340;28;19921;-68
2022/05/07 03:15:32;;;;;;;;;;;8.50;99.90;;;;;;5045870;28;19921;-69
2022/05/07 03:17:59;;;;;;;;;;;8.40;99.90;;;;;;5046436;28;20223;-68
2022/05/07 03:20:25;;;;;;;;;;;8.40;99.90;;;;;;5046830;28;19921;-69
2022/05/07 03:23:02;;;;;;;;;;;8.30;99.90;;;;;;5043998;28;20128;-69
2022/05/07 03:25:29;;;;;;;;;;;8.20;99.90;;;;;;5045506;28;19952;-68
2022/05/07 03:27:55;;;;;;;;;;;8.20;99.90;;;;;;5046681;28;19921;-68
2022/05/07 03:30:22;;;;;;;;;;;8.10;99.90;;;;;;5046456;28;19921;-68
2022/05/07 03:32:48;;;;;;;;;;;8.10;99.90;;;;;;5043613;28;19929;-68
2022/05/07 03:35:15;;;;;;;;;;;8.10;99.90;;;;;;5025814;28;19928;-68
2022/05/07 03:37:42;;;;;;;;;;;8.10;99.90;;;;;;5026564;28;19921;-69
2022/05/07 03:40:11;;;;;;;;;;;8.10;99.90;;;;;;5026436;28;19921;-68
2022/05/07 03:42:38;;;;;;;;;;;8.10;99.90;;;;;;5026179;28;20325;-68
2022/05/07 03:45:05;;;;;;;;;;;8.20;99.90;;;;;;5026315;28;19992;-68
2022/05/07 03:47:32;;;;;;;;;;;8.10;99.90;;;;;;5025350;28;19993;-68
2022/05/07 03:49:58;;;;;;;;;;;8.20;99.90;;;;;;5026472;28;19922;-68
2022/05/07 03:55:10;;;;;;;;;;;8.10;99.90;;;;;;5045711;28;20151;-69
2022/05/07 03:57:37;;;;;;;;;;;8.00;99.90;;;;;;5045308;28;19921;-67
2022/05/07 04:00:04;;;;;;;;;;;8.00;99.90;;;;;;5026220;28;19921;-69
2022/05/07 04:02:32;;;;;;;;;;;8.00;99.90;;;;;;5026182;28;19922;-68
2022/05/07 04:04:59;;;;;;;;;;;8.00;99.90;;;;;;5025710;28;19922;-68
2022/05/07 04:07:25;;;;;;;;;;;8.00;99.90;;;;;;5025432;28;19921;-68
2022/05/07 04:09:54;;;;;;;;;;;8.00;99.90;;;;;;5026024;28;19922;-68
2022/05/07 04:12:22;;;;;;;;;;;7.90;99.90;;;;;;5039414;23;20214;-69
2022/05/07 04:14:49;;;;;;;;;;;7.90;99.90;;;;;;5053302;28;19925;-68
2022/05/07 04:17:15;;;;;;;;;;;7.90;99.90;;;;;;5064310;28;19920;-68
2022/05/07 04:19:42;;;;;;;;;;;7.90;99.90;;;;;;5065244;28;20212;-68
2022/05/07 04:22:08;;;;;;;;;;;7.90;99.90;;;;;;5060342;28;19991;-69
2022/05/07 04:24:36;;;;;;;;;;;7.90;99.90;;;;;;5062597;28;19921;-69
2022/05/07 04:27:03;;;;;;;;;;;7.80;99.90;;;;;;5064310;28;19921;-69
2022/05/07 04:29:31;;;;;;;;;;;7.90;99.90;;;;;;5065456;28;19920;-69
2022/05/07 04:31:58;;;;;;;;;;;7.80;99.90;;;;;;5064640;28;19925;-69
2022/05/07 04:34:26;;;;;;;;;;;7.80;99.90;;;;;;5065075;28;19944;-69
2022/05/07 04:36:52;;;;;;;;;;;7.80;99.90;;;;;;5064101;28;20204;-69
2022/05/07 04:39:19;;;;;;;;;;;7.80;99.90;;;;;;5064738;28;20204;-69
2022/05/07 04:41:46;;;;;;;;;;;7.90;99.90;;;;;;5064356;28;20231;-69
2022/05/07 04:44:13;;;;;;;;;;;7.80;99.90;;;;;;5064949;28;20107;-69
2022/05/07 04:46:41;;;;;;;;;;;7.90;99.90;;;;;;5063853;28;20266;-69
2022/05/07 04:49:07;;;;;;;;;;;8.00;99.90;;;;;;5064812;28;20101;-69
2022/05/07 04:51:34;;;;;;;;;;;8.00;99.90;;;;;;5064428;28;19920;-69
2022/05/07 04:54:01;;;;;;;;;;;8.00;99.90;;;;;;5064495;28;20205;-68
2022/05/07 04:56:28;;;;;;;;;;;8.10;99.90;;;;;;5064236;28;19952;-69
2022/05/07 04:58:55;;;;;;;;;;;8.10;99.90;;;;;;5064382;28;19921;-69
2022/05/07 05:01:21;;;;;;;;;;;8.20;99.90;;;;;;5064247;28;19921;-69
2022/05/07 05:03:49;;;;;;;;;;;8.30;99.90;;;;;;5064282;28;19921;-69
2022/05/07 05:06:16;;;;;;;;;;;8.30;99.90;;;;;;5063711;28;19921;-69
2022/05/07 05:08:42;;;;;;;;;;;8.40;99.90;;;;;;5063954;28;19935;-69
2022/05/07 05:11:09;;;;;;;;;;;8.40;99.90;;;;;;5063852;28;19921;-69
2022/05/07 05:13:35;;;;;;;;;;;8.50;99.90;;;;;;5063840;28;19927;-69
2022/05/07 05:16:02;;;;;;;;;;;8.50;99.90;;;;;;5063584;28;19921;-69
2022/05/07 05:18:29;;;;;;;;;;;8.60;99.90;;;;;;5064075;28;19924;-69
2022/05/07 05:20:57;;;;;;;;;;;8.70;99.90;;;;;;5063923;28;19921;-69
2022/05/07 05:23:23;;;;;;;;;;;8.80;99.90;;;;;;5063818;28;19921;-69
2022/05/07 05:25:50;;;;;;;;;;;8.80;99.90;;;;;;5063102;28;19928;-69
2022/05/07 05:28:16;;;;;;;;;;;8.90;99.90;;;;;;5063648;28;19929;-68
2022/05/07 05:30:44;;;;;;;;;;;9.00;99.90;;;;;;5063722;28;19925;-69
2022/05/07 05:33:10;;;;;;;;;;;9.10;99.90;;;;;;5063896;28;19927;-68
2022/05/07 05:35:38;;;;;;;;;;;9.20;99.90;;;;;;5063182;28;19920;-68
2022/05/07 05:38:06;;;;;;;;;;;9.30;99.90;;;;;;5063474;28;19944;-68
2022/05/07 05:40:33;;;;;;;;;;;9.40;99.90;;;;;;5063179;28;19928;-69
2022/05/07 05:42:59;;;;;;;;;;;9.50;99.90;;;;;;5063573;28;19920;-69
2022/05/07 05:45:27;;;;;;;;;;;9.60;99.90;;;;;;5058988;28;19980;-69
2022/05/07 05:47:53;;;;;;;;;;;9.70;99.90;;;;;;5063493;28;20003;-69
2022/05/07 05:50:20;;;;;;;;;;;9.80;99.90;;;;;;5062529;28;19928;-69
2022/05/07 05:52:47;;;;;;;;;;;9.80;99.90;;;;;;5062294;28;19921;-68
2022/05/07 05:55:15;;;;;;;;;;;10.00;99.90;;;;;;5062848;28;19921;-69
2022/05/07 05:57:41;;;;;;;;;;;10.10;99.90;;;;;;5063266;28;19927;-69
2022/05/07 06:00:08;;;;;;;;;;;10.10;99.90;;;;;;5063394;28;19927;-69
2022/05/07 06:02:35;;;;;;;;;;;10.20;99.90;;;;;;5063403;28;20116;-69
2022/05/07 06:05:01;;;;;;;;;;;10.30;99.90;;;;;;5063274;28;20212;-68
2022/05/07 06:07:28;;;;;;;;;;;10.40;99.90;;;;;;5063119;28;20111;-68
2022/05/07 06:09:54;;;;;;;;;;;10.40;99.90;;;;;;5058515;28;19921;-69
2022/05/07 06:12:22;;;;;;;;;;;10.60;99.90;;;;;;5062419;28;19920;-69
2022/05/07 06:14:49;;;;;;;;;;;10.60;99.90;;;;;;5063195;28;20170;-69
2022/05/07 06:17:15;;;;;;;;;;;10.70;99.90;;;;;;5062542;28;20215;-69
2022/05/07 06:19:42;;;;;;;;;;;10.80;99.90;;;;;;5063258;28;20093;-68
2022/05/07 06:22:09;;;;;;;;;;;10.90;99.90;;;;;;5059947;28;20259;-69
2022/05/07 06:27:31;;;;;;;;;;;11.10;99.90;;;;;;5062597;28;19955;-69
2022/05/07 06:29:59;;;;;;;;;;;11.20;99.90;;;;;;5062949;28;20212;-68
2022/05/07 06:32:31;;;;;;;;;;;11.20;99.90;;;;;;5058791;28;19921;-69
2022/05/07 06:34:58;;;;;;;;;;;11.30;99.90;;;;;;5058461;28;19925;-69
2022/05/07 06:37:24;;;;;;;;;;;11.40;99.90;;;;;;5060782;28;19927;-69
2022/05/07 06:39:51;;;;;;;;;;;11.40;99.90;;;;;;5060798;28;19928;-69
2022/05/07 06:42:17;;;;;;;;;;;11.50;99.90;;;;;;5054253;28;19921;-69
2022/05/07 06:44:44;;;;;;;;;;;11.50;99.90;;;;;;5062708;28;19927;-69
2022/05/07 06:47:12;;;;;;;;;;;11.60;99.90;;;;;;5062137;28;19928;-69
2022/05/07 06:49:39;;;;;;;;;;;11.80;99.90;;;;;;5066127;28;20224;-69
2022/05/07 06:52:06;;;;;;;;;;;11.80;99.90;;;;;;5066588;28;19927;-69
2022/05/07 06:54:34;;;;;;;;;;;11.90;99.90;;;;;;5065101;28;20090;-70
2022/05/07 06:57:01;;;;;;;;;;;12.00;99.90;;;;;;5066387;28;19920;-69
2022/05/07 06:59:27;;;;;;;;;;;12.10;99.90;;;;;;5067088;28;19936;-68
2022/05/07 07:01:57;;;;;;;;;;;12.30;99.90;;;;;;5064358;28;19959;-69
2022/05/07 07:04:25;;;;;;;;;;;12.40;99.90;;;;;;5067146;28;19991;-69
2022/05/07 07:06:52;;;;;;;;;;;12.50;99.90;;;;;;5065325;28;19928;-69
2022/05/07 07:09:19;;;;;;;;;;;12.50;99.90;;;;;;5066494;28;19920;-69
2022/05/07 07:11:46;;;;;;;;;;;12.60;99.90;;;;;;5066268;28;19921;-68
2022/05/07 07:14:12;;;;;;;;;;;12.80;99.90;;;;;;5066857;28;19921;-68
2022/05/07 07:16:39;;;;;;;;;;;13.00;99.90;;;;;;5065953;28;19921;-68
2022/05/07 07:19:05;;;;;;;;;;;13.10;99.90;;;;;;5064574;28;19927;-69
2022/05/07 07:21:34;;;;;;;;;;;13.10;99.90;;;;;;5065338;28;19967;-69
2022/05/07 07:24:01;;;;;;;;;;;13.20;99.90;;;;;;5066704;28;19991;-69
2022/05/07 07:26:28;;;;;;;;;;;13.40;99.90;;;;;;5063746;28;19987;-68
2022/05/07 07:28:55;;;;;;;;;;;13.50;99.90;;;;;;5046496;28;20117;-69
2022/05/07 07:31:22;;;;;;;;;;;13.50;99.90;;;;;;5045773;28;19921;-69
2022/05/07 07:33:49;;;;;;;;;;;13.70;99.90;;;;;;5046031;28;20120;-69
2022/05/07 07:36:15;;;;;;;;;;;13.90;99.90;;;;;;5045645;28;20216;-69
2022/05/07 07:38:43;;;;;;;;;;;14.00;99.90;;;;;;5046563;28;19952;-68
2022/05/07 07:41:12;;;;;;;;;;;14.10;99.90;;;;;;5046390;28;19921;-68
2022/05/07 07:43:40;;;;;;;;;;;14.20;99.90;;;;;;5045878;28;19927;-69
2022/05/07 07:48:52;;;;;;;;;;;14.50;99.90;;;;;;5054619;28;20088;-70
2022/05/07 07:51:20;;;;;;;;;;;14.50;99.90;;;;;;5045910;28;19967;-69
2022/05/07 07:53:47;;;;;;;;;;;14.50;99.90;;;;;;5045988;28;19967;-68
2022/05/07 07:56:15;;;;;;;;;;;14.50;99.90;;;;;;5044644;28;20112;-68
2022/05/07 07:58:42;;;;;;;;;;;14.60;99.90;;;;;;5045938;28;19959;-67
2022/05/07 08:01:09;;;;;;;;;;;14.70;99.90;;;;;;5064747;28;19943;-69
2022/05/07 08:03:35;;;;;;;;;;;14.80;99.90;;;;;;5065975;28;19942;-66
2022/05/07 08:06:02;;;;;;;;;;;14.90;99.90;;;;;;5065084;28;19921;-67
2022/05/07 08:13:59;;;;;;;;;;;15.20;99.90;;;;;;5043986;28;20111;-68
2022/05/07 08:16:26;;;;;;;;;;;15.30;99.90;;;;;;5044924;28;19960;-67
2022/05/07 08:18:52;;;;;;;;;;;15.30;99.90;;;;;;5045668;28;19921;-67
2022/05/07 08:21:19;;;;;;;;;;;15.40;99.90;;;;;;5045817;28;19935;-67
2022/05/07 08:23:46;;;;;;;;;;;15.30;99.90;;;;;;5045711;28;19921;-66
2022/05/07 08:26:14;;;;;;;;;;;15.40;99.90;;;;;;5044846;28;19927;-66
2022/05/07 08:28:41;;;;;;;;;;;15.50;99.90;;;;;;5046182;28;19921;-69
2022/05/07 08:31:08;;;;;;;;;;;15.60;99.90;;;;;;5061175;28;19921;-68
2022/05/07 08:33:35;;;;;;;;;;;15.60;99.90;;;;;;5065701;28;19929;-68
2022/05/07 08:36:02;;;;;;;;;;;15.60;99.90;;;;;;5064636;28;19920;-67
2022/05/07 08:38:29;;;;;;;;;;;15.60;99.90;;;;;;5064923;28;19984;-68
2022/05/07 08:40:56;;;;;;;;;;;15.70;99.90;;;;;;5065074;28;19927;-69
2022/05/07 08:43:24;;;;;;;;;;;15.80;99.90;;;;;;5064929;28;19920;-68
2022/05/07 08:45:51;;;;;;;;;;;15.80;99.90;;;;;;5066641;28;20109;-68
2022/05/07 08:48:19;;;;;;;;;;;15.90;99.90;;;;;;5082689;28;19920;-68
2022/05/07 08:50:46;;;;;;;;;;;16.00;99.90;;;;;;5084644;28;19926;-68
2022/05/07 08:53:13;;;;;;;;;;;16.10;99.90;;;;;;5084217;28;19927;-68
2022/05/07 08:55:39;;;;;;;;;;;16.20;99.90;;;;;;5083810;28;19928;-69
2022/05/07 08:58:06;;;;;;;;;;;16.30;99.90;;;;;;5084571;28;19925;-68
2022/05/07 09:00:38;;;;;;;;;;;16.40;99.90;;;;;;5080876;28;20232;-68
2022/05/07 09:03:04;;;;;;;;;;;16.50;99.90;;;;;;5064839;28;19929;-69
2022/05/07 09:05:32;;;;;;;;;;;16.50;99.90;;;;;;5063674;28;20230;-68
2022/05/07 09:07:59;;;;;;;;;;;16.60;99.90;;;;;;5064340;28;19921;-68
2022/05/07 09:10:27;;;;;;;;;;;16.70;99.90;;;;;;5063010;28;19987;-68
2022/05/07 09:12:54;;;;;;;;;;;16.80;99.90;;;;;;5070742;28;19942;-68
2022/05/07 09:15:20;;;;;;;;;;;17.00;99.90;;;;;;5074315;28;20231;-68
2022/05/07 09:17:48;;;;;;;;;;;17.00;99.90;;;;;;5064324;28;19921;-68
2022/05/07 09:20:16;;;;;;;;;;;17.10;99.90;;;;;;5078614;28;19927;-67
2022/05/07 09:22:49;;;;;;;;;;;17.20;99.90;;;;;;5083769;28;20259;-68
2022/05/07 09:25:20;;;;;;;;;;;17.30;99.90;;;;;;5073789;28;20143;-68
2022/05/07 09:27:47;;;;;;;;;;;17.40;99.90;;;;;;5053225;28;19928;-68
2022/05/07 09:30:14;;;;;;;;;;;17.50;99.90;;;;;;5063759;28;19940;-68
2022/05/07 09:32:40;;;;;;;;;;;17.50;99.90;;;;;;5063953;28;19920;-69
2022/05/07 09:38:01;;;;;;;;;;;17.50;99.90;;;;;;5043702;28;20116;-67
2022/05/07 09:40:28;;;;;;;;;;;17.40;99.90;;;;;;5079774;28;19935;-67
2022/05/07 09:42:56;;;;;;;;;;;17.50;99.90;;;;;;5060864;28;19921;-67
2022/05/07 09:45:22;;;;;;;;;;;17.40;99.90;;;;;;5056606;28;19928;-67
2022/05/07 09:47:49;;;;;;;;;;;17.40;99.90;;;;;;5058686;28;19921;-67
2022/05/07 09:50:21;;;;;;;;;;;17.40;99.90;;;;;;5063740;28;19921;-67
2022/05/07 09:58:13;;;;;;;;;;;17.50;99.90;;;;;;5079126;28;19924;-68
2022/05/07 10:00:44;;;;;;;;;;;17.60;99.90;;;;;;5082687;28;19924;-68
2022/05/07 10:03:17;;;;;;;;;;;17.70;99.90;;;;;;5082893;28;20285;-69
2022/05/07 10:06:03;;;;;;;;;;;17.80;99.90;;;;;;5082828;28;19935;-68
2022/05/07 10:08:34;;;;;;;;;;;17.90;99.90;;;;;;5072218;28;19991;-68
2022/05/07 10:11:04;;;;;;;;;;;18.00;99.90;;;;;;5063864;28;19948;-67
2022/05/07 10:13:32;;;;;;;;;;;18.00;99.90;;;;;;5063168;28;19929;-67
2022/05/07 10:16:00;;;;;;;;;;;18.00;99.90;;;;;;5067028;28;20204;-67
2022/05/07 10:18:34;;;;;;;;;;;18.00;99.90;;;;;;5080749;28;20090;-67
2022/05/07 10:21:10;;;;;;;;;;;18.00;99.90;;;;;;5043774;28;19921;-69
2022/05/07 10:23:38;;;;;;;;;;;18.10;99.90;;;;;;5045853;28;19929;-69
2022/05/07 10:26:06;;;;;;;;;;;18.10;99.90;;;;;;5062983;28;19942;-69
2022/05/07 10:28:43;;;;;;;;;;;18.00;99.90;;;;;;5063336;28;20258;-68
2022/05/07 10:31:16;;;;;;;;;;;17.90;99.90;;;;;;5043462;28;20205;-67
2022/05/07 10:33:43;;;;;;;;;;;18.00;99.90;;;;;;5042138;28;19921;-67
2022/05/07 10:36:12;;;;;;;;;;;18.20;99.90;;;;;;5042938;28;19944;-67
2022/05/07 10:38:42;;;;;;;;;;;18.30;99.90;;;;;;5047761;28;19927;-67
2022/05/07 10:41:20;;;;;;;;;;;18.60;99.90;;;;;;5063373;28;19932;-66
2022/05/07 10:43:48;;;;;;;;;;;18.70;99.90;;;;;;5061749;28;19920;-66
2022/05/07 10:46:16;;;;;;;;;;;18.90;99.90;;;;;;5062236;28;19928;-66
2022/05/07 10:48:44;;;;;;;;;;;19.00;99.90;;;;;;5063162;28;19921;-67
2022/05/07 10:51:19;;;;;;;;;;;19.20;99.90;;;;;;5063531;28;19921;-67
2022/05/07 10:53:45;;;;;;;;;;;19.30;99.90;;;;;;5093928;23;20123;-68
2022/05/07 10:56:13;;;;;;;;;;;19.50;99.90;;;;;;5082165;28;19984;-68
2022/05/07 10:58:44;;;;;;;;;;;19.60;99.90;;;;;;5082987;28;19966;-69
2022/05/07 11:01:11;;;;;;;;;;;19.70;99.90;;;;;;5083033;28;19921;-69
2022/05/07 11:03:38;;;;;;;;;;;19.90;99.90;;;;;;5082501;28;19928;-68
2022/05/07 11:06:04;;;;;;;;;;;19.80;99.90;;;;;;5082508;28;19927;-69
2022/05/07 11:08:35;;;;;;;;;;;19.90;99.90;;;;;;5081985;28;19920;-69
2022/05/07 11:11:07;;;;;;;;;;;20.10;99.90;;;;;;5083191;28;20146;-68
2022/05/07 11:13:38;;;;;;;;;;;20.30;99.90;;;;;;5098700;28;19920;-68
2022/05/07 11:16:05;;;;;;;;;;;20.50;99.90;;;;;;5095617;28;19920;-64
2022/05/07 11:18:36;;;;;;;;;;;20.40;99.90;;;;;;5101148;28;19920;-65
2022/05/07 11:21:03;;;;;;;;;;;20.30;99.90;;;;;;5102764;28;19920;-65
2022/05/07 11:23:30;;;;;;;;;;;20.20;99.90;;;;;;5092721;28;19921;-65
2022/05/07 11:26:09;;;;;;;;;;;20.10;99.90;;;;;;5098413;28;19920;-69
2022/05/07 11:28:35;;;;;;;;;;;20.00;99.90;;;;;;5100944;28;19920;-69
2022/05/07 11:31:02;;;;;;;;;;;19.90;99.90;;;;;;5091598;28;19927;-70
2022/05/07 11:33:29;;;;;;;;;;;19.70;99.90;;;;;;5093021;28;19942;-69
2022/05/07 11:36:00;;;;;;;;;;;19.60;99.90;;;;;;5102571;28;19990;-69
2022/05/07 11:38:26;;;;;;;;;;;19.60;99.90;;;;;;5106508;28;19927;-69
2022/05/07 11:40:53;;;;;;;;;;;19.60;99.90;;;;;;5106318;28;19920;-68
2022/05/07 11:46:06;;;;;;;;;;;19.50;99.90;;;;;;5069815;28;19920;-69
2022/05/07 11:48:32;;;;;;;;;;;19.60;99.90;;;;;;5085869;28;19928;-69
2022/05/07 11:50:59;;;;;;;;;;;19.60;99.90;;;;;;5085918;28;20207;-70
2022/05/07 11:53:27;;;;;;;;;;;19.60;99.90;;;;;;5085436;28;19927;-69
2022/05/07 11:56:04;;;;;;;;;;;19.40;99.90;;;;;;5085104;28;19921;-68
2022/05/07 11:58:39;;;;;;;;;;;19.30;99.90;;;;;;5085483;28;19920;-69
2022/05/07 12:01:06;;;;;;;;;;;19.40;99.90;;;;;;5085789;28;19924;-69
2022/05/07 12:03:32;;;;;;;;;;;19.40;99.90;;;;;;5088914;28;19920;-70
2022/05/07 12:05:59;;;;;;;;;;;19.40;99.90;;;;;;5105133;28;19935;-69
2022/05/07 12:08:30;;;;;;;;;;;19.70;99.90;;;;;;5105899;28;19924;-69
2022/05/07 12:10:58;;;;;;;;;;;20.00;99.90;;;;;;5106281;28;19920;-68
2022/05/07 12:13:25;;;;;;;;;;;20.40;99.90;;;;;;5096025;28;20243;-69
2022/05/07 12:18:37;;;;;;;;;;;21.20;99.90;;;;;;5103011;28;20001;-69
2022/05/07 12:21:04;;;;;;;;;;;21.30;99.90;;;;;;5085454;28;19920;-69
2022/05/07 12:31:45;;;;;;;;;;;20.60;99.90;;;;;;5093681;28;20264;-68
2022/05/07 12:34:12;;;;;;;;;;;20.50;99.90;;;;;;5097939;28;19921;-69
2022/05/07 12:36:38;;;;;;;;;;;20.60;99.90;;;;;;5094735;28;19982;-69
2022/05/07 12:39:05;;;;;;;;;;;20.40;99.90;;;;;;5103890;28;20248;-69
2022/05/07 12:41:32;;;;;;;;;;;20.30;99.90;;;;;;5094557;28;19935;-69
2022/05/07 12:43:59;;;;;;;;;;;20.30;99.90;;;;;;5090043;28;19965;-69
2022/05/07 12:46:25;;;;;;;;;;;20.50;99.90;;;;;;5090648;28;19926;-69
2022/05/07 12:48:55;;;;;;;;;;;20.90;99.90;;;;;;5094856;28;19927;-69
2022/05/07 12:51:22;;;;;;;;;;;21.30;99.90;;;;;;5096183;28;19948;-69
2022/05/07 12:53:49;;;;;;;;;;;21.80;99.90;;;;;;5092087;28;19967;-69
2022/05/07 12:56:16;;;;;;;;;;;22.20;99.90;;;;;;5091796;28;19920;-69
2022/05/07 12:58:42;;;;;;;;;;;22.40;99.90;;;;;;5089501;28;19928;-70
2022/05/07 13:01:11;;;;;;;;;;;22.50;99.90;;;;;;5095186;28;19920;-69
2022/05/07 13:03:38;;;;;;;;;;;22.70;99.80;;;;;;5095010;28;19942;-69
2022/05/07 13:06:06;;;;;;;;;;;22.90;99.90;;;;;;5091295;28;19932;-69
2022/05/07 13:08:32;;;;;;;;;;;22.90;99.10;;;;;;5094152;28;19928;-69
2022/05/07 13:10:59;;;;;;;;;;;22.50;97.80;;;;;;5095468;28;19950;-69
2022/05/07 13:13:25;;;;;;;;;;;22.20;97.60;;;;;;5094654;28;19935;-69
2022/05/07 13:15:52;;;;;;;;;;;21.80;97.70;;;;;;5093075;28;19958;-69
2022/05/07 13:18:20;;;;;;;;;;;21.30;98.40;;;;;;5094850;28;19995;-69
2022/05/07 13:20:48;;;;;;;;;;;21.10;98.80;;;;;;5096442;28;20231;-69
2022/05/07 13:23:16;;;;;;;;;;;20.80;99.30;;;;;;5086497;28;19928;-69
2022/05/07 13:25:43;;;;;;;;;;;20.80;99.20;;;;;;5096367;28;19928;-69
2022/05/07 13:28:09;;;;;;;;;;;20.60;99.10;;;;;;5091352;28;19991;-69
2022/05/07 13:30:36;;;;;;;;;;;20.80;99.90;;;;;;5094688;28;19927;-69
2022/05/07 13:33:03;;;;;;;;;;;21.20;99.00;;;;;;5091066;28;19920;-69
2022/05/07 13:35:30;;;;;;;;;;;21.80;98.00;;;;;;5091651;28;19935;-69
2022/05/07 13:37:57;;;;;;;;;;;22.30;98.00;;;;;;5097502;28;20265;-69
2022/05/07 13:40:25;;;;;;;;;;;22.50;96.80;;;;;;5093307;28;19928;-70
2022/05/07 13:42:53;;;;;;;;;;;22.80;97.10;;;;;;5098309;28;19935;-70
2022/05/07 13:45:20;;;;;;;;;;;22.90;96.60;;;;;;5098299;28;19950;-69
2022/05/07 13:47:46;;;;;;;;;;;23.00;97.50;;;;;;5090903;28;20150;-69
2022/05/07 13:50:13;;;;;;;;;;;23.00;97.70;;;;;;5098041;28;19928;-69
2022/05/07 13:52:40;;;;;;;;;;;23.20;96.50;;;;;;5094620;28;20127;-69
2022/05/07 13:55:07;;;;;;;;;;;23.20;95.00;;;;;;5093097;28;19934;-70
2022/05/07 13:57:36;;;;;;;;;;;23.40;95.30;;;;;;5100853;28;19935;-69
2022/05/07 14:00:04;;;;;;;;;;;23.60;95.60;;;;;;5087169;28;19920;-69
2022/05/07 14:02:31;;;;;;;;;;;23.80;94.20;;;;;;5091681;28;19935;-69
2022/05/07 14:05:00;;;;;;;;;;;24.00;94.10;;;;;;5091957;28;19928;-70
2022/05/07 14:07:26;;;;;;;;;;;24.30;94.20;;;;;;5092875;28;19952;-67
2022/05/07 14:09:53;;;;;;;;;;;24.50;93.60;;;;;;5090872;28;19935;-66
2022/05/07 14:12:20;;;;;;;;;;;24.60;93.50;;;;;;5090133;28;19959;-66
2022/05/07 14:14:48;;;;;;;;;;;24.30;92.70;;;;;;5093778;28;20036;-67
2022/05/07 14:17:15;;;;;;;;;;;24.00;94.00;;;;;;5095023;28;20092;-68
2022/05/07 14:19:42;;;;;;;;;;;23.50;92.80;;;;;;5087993;28;19950;-66
2022/05/07 14:22:09;;;;;;;;;;;22.90;93.60;;;;;;5095580;28;19928;-66
2022/05/07 14:24:35;;;;;;;;;;;22.40;93.10;;;;;;5093944;28;19935;-66
2022/05/07 14:27:02;;;;;;;;;;;22.20;93.40;;;;;;5088157;28;19935;-67
2022/05/07 14:29:29;;;;;;;;;;;22.10;94.40;;;;;;5100113;28;19926;-68
2022/05/07 14:31:59;;;;;;;;;;;22.20;93.70;;;;;;5103476;28;19926;-68
2022/05/07 14:34:26;;;;;;;;;;;22.40;94.70;;;;;;5103469;28;19924;-68
2022/05/07 14:36:53;;;;;;;;;;;22.50;93.70;;;;;;5103009;28;19924;-68
2022/05/07 14:39:19;;;;;;;;;;;22.80;93.80;;;;;;5103130;28;19965;-69
2022/05/07 14:41:47;;;;;;;;;;;22.90;93.00;;;;;;5100416;28;19924;-68
2022/05/07 14:44:14;;;;;;;;;;;23.00;91.70;;;;;;5082858;28;20230;-68
2022/05/07 14:46:40;;;;;;;;;;;23.00;92.00;;;;;;5082365;28;19988;-68
2022/05/07 14:49:10;;;;;;;;;;;23.00;91.80;;;;;;5083135;28;19966;-68
2022/05/07 14:51:37;;;;;;;;;;;23.00;92.90;;;;;;5083146;28;19955;-67
2022/05/07 14:54:03;;;;;;;;;;;22.80;91.50;;;;;;5082707;28;19921;-68
2022/05/07 14:56:30;;;;;;;;;;;22.70;91.60;;;;;;5096538;28;19920;-67
2022/05/07 14:58:57;;;;;;;;;;;22.50;92.00;;;;;;5103091;28;19920;-68
2022/05/07 15:01:24;;;;;;;;;;;22.30;91.10;;;;;;5086216;28;20219;-68
2022/05/07 15:03:50;;;;;;;;;;;22.20;91.80;;;;;;5095656;28;19940;-67
2022/05/07 15:06:18;;;;;;;;;;;22.30;92.60;;;;;;5102523;28;19920;-68